createdAt,value
2023-05-21T00:00:45.273Z,25.90
2023-05-21T00:02:06.264Z,25.48
2023-05-21T00:05:37.990Z,25.55
2023-05-21T00:07:22.497Z,27.25
2023-05-21T00:08:50.558Z,24.75
2023-05-21T00:10:11.774Z,24.88
2023-05-21T00:11:35.171Z,23.80
2023-05-21T00:12:57.223Z,25.13
2023-05-21T00:14:18.492Z,25.15
2023-05-21T00:15:40.863Z,25.45
2023-05-21T00:17:01.797Z,24.35
2023-05-21T00:19:10.712Z,24.92
2023-05-21T00:20:33.670Z,24.38
2023-05-21T00:22:16.129Z,25.75
2023-05-21T00:23:43.398Z,24.27
2023-05-21T00:25:15.239Z,25.33
2023-05-21T00:26:36.609Z,24.83
2023-05-21T00:28:02.557Z,25.35
2023-05-21T00:29:30.527Z,26.17
2023-05-21T00:30:52.797Z,25.45
2023-05-21T00:32:35.288Z,26.27
2023-05-21T00:33:57.832Z,26.85
2023-05-21T00:35:34.245Z,26.35
2023-05-21T00:37:17.211Z,23.95
2023-05-21T00:38:39.944Z,25.63
2023-05-21T00:40:05.266Z,26.27
2023-05-21T00:41:32.134Z,27.27
2023-05-21T00:43:00.478Z,23.35
2023-05-21T00:44:34.414Z,25.38
2023-05-21T00:45:59.411Z,24.92
2023-05-21T00:47:25.119Z,25.30
2023-05-21T00:48:47.464Z,24.58
2023-05-21T00:50:11.027Z,24.70
2023-05-21T00:51:33.690Z,25.75
2023-05-21T00:53:19.579Z,25.40
2023-05-21T00:54:56.145Z,25.38
2023-05-21T00:56:21.684Z,24.55
2023-05-21T00:57:46.203Z,26.25
2023-05-21T00:59:11.411Z,24.90
2023-05-21T01:00:35.481Z,26.20
2023-05-21T01:02:04.333Z,26.20
2023-05-21T01:03:27.295Z,25.52
2023-05-21T01:04:48.510Z,26.85
2023-05-21T01:06:23.492Z,25.25
2023-05-21T01:07:46.799Z,26.00
2023-05-21T01:09:15.826Z,25.25
2023-05-21T01:10:38.446Z,24.85
2023-05-21T01:12:01.142Z,24.60
2023-05-21T01:13:24.260Z,24.95
2023-05-21T01:14:47.066Z,24.75
2023-05-21T01:16:09.117Z,24.90
2023-05-21T01:17:32.192Z,25.48
2023-05-21T01:18:57.069Z,24.42
2023-05-21T01:20:30.788Z,25.42
2023-05-21T01:22:03.193Z,25.67
2023-05-21T01:23:26.972Z,24.88
2023-05-21T01:24:51.773Z,24.75
2023-05-21T01:26:14.139Z,25.50
2023-05-21T01:27:37.525Z,26.33
2023-05-21T01:28:59.281Z,25.25
2023-05-21T01:30:41.122Z,25.02
2023-05-21T01:32:10.975Z,24.27
2023-05-21T01:33:41.302Z,25.02
2023-05-21T01:35:09.235Z,25.38
2023-05-21T01:36:41.267Z,26.17
2023-05-21T01:38:09.016Z,25.55
2023-05-21T01:39:41.931Z,25.63
2023-05-21T01:41:08.663Z,25.83
2023-05-21T01:42:34.942Z,23.77
2023-05-21T01:43:58.874Z,25.90
2023-05-21T01:45:24.348Z,25.25
2023-05-21T01:46:46.501Z,24.73
2023-05-21T01:48:09.436Z,25.92
2023-05-21T01:49:32.297Z,25.20
2023-05-21T01:50:55.494Z,25.48
2023-05-21T01:52:22.434Z,26.48
2023-05-21T01:53:44.543Z,24.77
2023-05-21T01:56:54.223Z,24.63
2023-05-21T01:58:17.262Z,24.10
2023-05-21T01:59:39.055Z,26.40
2023-05-21T02:01:13.665Z,25.05
2023-05-21T02:02:50.564Z,25.33
2023-05-21T02:04:15.668Z,23.15
2023-05-21T02:07:20.022Z,23.17
2023-05-21T02:10:20.350Z,24.15
2023-05-21T02:11:41.840Z,24.35
2023-05-21T02:13:04.072Z,25.43
2023-05-21T02:14:25.619Z,24.52
2023-05-21T02:17:31.538Z,22.60
2023-05-21T02:18:57.613Z,23.63
2023-05-21T02:20:19.583Z,23.75
2023-05-21T02:21:41.820Z,23.90
2023-05-21T02:23:04.135Z,24.70
2023-05-21T02:24:25.301Z,24.40
2023-05-21T02:25:52.462Z,23.65
2023-05-21T02:27:23.925Z,25.38
2023-05-21T02:28:46.360Z,23.90
2023-05-21T02:30:10.915Z,23.52
2023-05-21T02:31:55.136Z,22.30
2023-05-21T02:33:42.201Z,24.17
2023-05-21T02:35:06.109Z,24.05
2023-05-21T02:36:28.971Z,23.05
2023-05-21T02:37:51.361Z,23.98
2023-05-21T02:39:13.476Z,23.15
2023-05-21T02:40:36.072Z,23.45
2023-05-21T02:41:59.904Z,22.02
2023-05-21T02:43:20.960Z,23.80
2023-05-21T02:44:43.247Z,23.85
2023-05-21T02:46:09.775Z,23.60
2023-05-21T02:47:35.785Z,23.20
2023-05-21T02:49:04.570Z,23.70
2023-05-21T02:50:36.270Z,21.95
2023-05-21T02:51:58.746Z,22.02
2023-05-21T02:53:21.353Z,23.40
2023-05-21T02:54:42.903Z,22.55
2023-05-21T02:56:05.728Z,23.50
2023-05-21T02:57:29.360Z,23.00
2023-05-21T02:58:52.105Z,22.08
2023-05-21T03:00:16.177Z,22.42
2023-05-21T03:01:39.063Z,21.58
2023-05-21T03:03:01.891Z,21.38
2023-05-21T03:05:13.264Z,22.00
2023-05-21T03:06:38.916Z,23.23
2023-05-21T03:08:32.087Z,21.75
2023-05-21T03:09:53.124Z,20.20
2023-05-21T03:11:27.225Z,20.08
2023-05-21T03:12:51.249Z,21.58
2023-05-21T03:14:16.170Z,20.67
2023-05-21T03:15:56.754Z,22.08
2023-05-21T03:17:19.245Z,20.95
2023-05-21T03:18:50.951Z,21.45
2023-05-21T03:20:17.281Z,19.70
2023-05-21T03:21:38.998Z,22.73
2023-05-21T03:23:04.512Z,21.80
2023-05-21T03:24:26.436Z,21.25
2023-05-21T03:25:51.082Z,21.75
2023-05-21T03:27:12.078Z,20.48
2023-05-21T03:28:45.729Z,20.55
2023-05-21T03:30:08.050Z,21.77
2023-05-21T03:31:39.118Z,21.88
2023-05-21T03:33:03.739Z,19.67
2023-05-21T03:34:29.242Z,21.63
2023-05-21T03:35:51.772Z,20.38
2023-05-21T03:37:14.544Z,21.10
2023-05-21T03:38:37.204Z,19.60
2023-05-21T03:40:12.062Z,20.70
2023-05-21T03:41:34.366Z,19.88
2023-05-21T03:43:04.472Z,19.77
2023-05-21T03:44:27.043Z,18.90
2023-05-21T03:45:56.908Z,19.23
2023-05-21T03:47:50.087Z,18.83
2023-05-21T03:49:12.944Z,20.58
2023-05-21T03:50:35.842Z,18.88
2023-05-21T03:52:34.364Z,19.40
2023-05-21T03:53:56.057Z,17.92
2023-05-21T03:55:21.670Z,18.63
2023-05-21T03:56:59.969Z,19.92
2023-05-21T03:58:22.444Z,18.85
2023-05-21T04:01:13.505Z,18.20
2023-05-21T04:02:36.551Z,18.27
2023-05-21T04:03:58.025Z,18.02
2023-05-21T04:05:22.180Z,19.02
2023-05-21T04:06:43.999Z,18.25
2023-05-21T04:08:07.470Z,19.38
2023-05-21T04:09:29.833Z,19.48
2023-05-21T04:11:01.392Z,18.00
2023-05-21T04:12:24.227Z,17.98
2023-05-21T04:13:45.293Z,19.00
2023-05-21T04:15:10.263Z,18.58
2023-05-21T04:16:31.384Z,18.88
2023-05-21T04:17:55.472Z,18.15
2023-05-21T04:19:18.605Z,19.10
2023-05-21T04:20:45.960Z,18.92
2023-05-21T04:23:07.913Z,18.02
2023-05-21T04:24:30.513Z,17.70
2023-05-21T04:26:12.891Z,18.48
2023-05-21T04:27:36.482Z,17.85
2023-05-21T04:29:03.092Z,17.63
2023-05-21T04:30:29.424Z,17.92
2023-05-21T04:31:52.923Z,17.80
2023-05-21T04:33:18.552Z,18.65
2023-05-21T04:34:41.009Z,18.65
2023-05-21T04:36:12.378Z,17.88
2023-05-21T04:37:35.312Z,18.40
2023-05-21T04:38:57.918Z,18.27
2023-05-21T04:40:24.678Z,18.10
2023-05-21T04:41:47.009Z,17.38
2023-05-21T04:43:11.686Z,17.50
2023-05-21T04:44:36.387Z,17.33
2023-05-21T04:46:16.833Z,17.83
2023-05-21T04:47:39.524Z,16.38
2023-05-21T04:50:17.610Z,17.20
2023-05-21T04:51:41.735Z,16.52
2023-05-21T04:53:17.599Z,16.85
2023-05-21T04:54:55.379Z,15.98
2023-05-21T04:56:29.641Z,17.02
2023-05-21T04:57:51.425Z,16.75
2023-05-21T05:00:38.068Z,15.40
2023-05-21T05:02:03.669Z,16.30
2023-05-21T05:03:29.039Z,15.55
2023-05-21T05:04:51.996Z,15.15
2023-05-21T05:06:15.679Z,15.77
2023-05-21T05:08:04.410Z,16.50
2023-05-21T05:09:38.334Z,14.90
2023-05-21T05:11:03.947Z,15.10
2023-05-21T05:14:36.921Z,15.25
2023-05-21T05:16:00.660Z,14.52
2023-05-21T05:17:24.764Z,14.63
2023-05-21T05:18:47.061Z,13.73
2023-05-21T05:20:10.488Z,13.75
2023-05-21T05:21:35.668Z,14.55
2023-05-21T05:22:57.920Z,13.82
2023-05-21T05:24:19.914Z,15.15
2023-05-21T05:25:42.578Z,14.23
2023-05-21T05:27:05.615Z,15.15
2023-05-21T05:28:28.608Z,13.70
2023-05-21T05:30:17.123Z,13.55
2023-05-21T05:31:45.637Z,14.02
2023-05-21T05:35:58.940Z,14.35
2023-05-21T05:37:28.992Z,13.55
2023-05-21T05:39:17.703Z,13.07
2023-05-21T05:40:41.870Z,13.32
2023-05-21T05:45:25.367Z,13.05
2023-05-21T05:46:48.479Z,12.30
2023-05-21T05:48:10.052Z,12.48
2023-05-21T05:49:32.181Z,13.30
2023-05-21T05:50:57.183Z,12.50
2023-05-21T05:52:28.475Z,12.20
2023-05-21T05:53:51.148Z,11.75
2023-05-21T05:55:12.290Z,12.52
2023-05-21T05:56:45.401Z,12.88
2023-05-21T05:58:10.465Z,13.40
2023-05-21T06:01:34.528Z,11.98
2023-05-21T06:03:22.655Z,12.20
2023-05-21T06:07:02.027Z,12.25
2023-05-21T06:08:24.799Z,11.73
2023-05-21T06:10:23.070Z,12.20
2023-05-21T06:11:47.622Z,11.55
2023-05-21T06:13:28.537Z,11.85
2023-05-21T06:14:51.740Z,10.67
2023-05-21T06:18:12.693Z,10.60
2023-05-21T06:20:13.487Z,11.03
2023-05-21T06:21:37.799Z,10.55
2023-05-21T06:23:01.181Z,10.23
2023-05-21T06:24:35.871Z,10.85
2023-05-21T06:26:16.560Z,10.38
2023-05-21T06:27:42.180Z,9.88
2023-05-21T06:29:25.302Z,10.40
2023-05-21T06:30:51.738Z,9.90
2023-05-21T06:32:21.004Z,10.05
2023-05-21T06:33:43.861Z,10.30
2023-05-21T06:35:07.535Z,9.32
2023-05-21T06:36:30.314Z,9.85
2023-05-21T06:39:07.359Z,9.88
2023-05-21T06:40:37.255Z,9.32
2023-05-21T06:42:33.615Z,9.43
2023-05-21T06:44:15.907Z,9.20
2023-05-21T06:45:55.749Z,9.43
2023-05-21T06:47:53.702Z,8.57
2023-05-21T06:49:32.025Z,9.65
2023-05-21T06:50:55.568Z,8.68
2023-05-21T06:52:23.718Z,8.77
2023-05-21T06:53:45.733Z,8.77
2023-05-21T06:55:18.756Z,9.27
2023-05-21T06:57:01.810Z,9.18
2023-05-21T06:58:34.950Z,9.20
2023-05-21T07:00:05.262Z,9.23
2023-05-21T07:01:38.550Z,8.65
2023-05-21T07:03:07.831Z,8.95
2023-05-21T07:04:37.114Z,8.02
2023-05-21T07:06:06.700Z,8.15
2023-05-21T07:07:46.268Z,7.93
2023-05-21T07:09:14.525Z,8.10
2023-05-21T07:10:59.382Z,8.35
2023-05-21T07:12:37.829Z,9.38
2023-05-21T07:14:05.431Z,8.18
2023-05-21T07:15:31.190Z,7.55
2023-05-21T07:16:53.949Z,7.82
2023-05-21T07:18:18.051Z,7.75
2023-05-21T07:19:40.691Z,8.20
2023-05-21T07:21:02.892Z,7.90
2023-05-21T07:22:56.221Z,8.10
2023-05-21T07:24:18.704Z,7.25
2023-05-21T07:26:01.864Z,7.88
2023-05-21T07:27:39.289Z,6.95
2023-05-21T07:29:00.527Z,7.35
2023-05-21T07:30:26.148Z,7.18
2023-05-21T07:31:50.626Z,7.43
2023-05-21T07:35:54.065Z,7.28
2023-05-21T07:37:18.734Z,7.00
2023-05-21T07:38:42.224Z,6.50
2023-05-21T07:40:07.854Z,7.00
2023-05-21T07:41:36.225Z,6.70
2023-05-21T07:43:03.682Z,7.35
2023-05-21T07:45:05.844Z,6.93
2023-05-21T07:47:54.436Z,6.72
2023-05-21T07:49:18.980Z,7.25
2023-05-21T07:50:47.238Z,6.65
2023-05-21T07:52:11.281Z,7.30
2023-05-21T07:53:36.627Z,7.13
2023-05-21T07:55:06.458Z,6.28
2023-05-21T07:56:34.614Z,7.30
2023-05-21T07:57:57.542Z,6.78
2023-05-21T07:59:25.243Z,6.50
2023-05-21T08:01:47.463Z,7.25
2023-05-21T08:05:37.525Z,6.55
2023-05-21T08:07:00.262Z,7.60
2023-05-21T08:08:41.913Z,6.63
2023-05-21T08:10:40.329Z,7.07
2023-05-21T08:12:04.245Z,6.95
2023-05-21T08:13:26.647Z,6.93
2023-05-21T08:14:51.945Z,7.35
2023-05-21T08:16:17.953Z,7.13
2023-05-21T08:17:41.232Z,7.15
2023-05-21T08:19:03.691Z,6.70
2023-05-21T08:20:26.468Z,6.53
2023-05-21T08:21:52.746Z,7.15
2023-05-21T08:23:16.667Z,6.93
2023-05-21T08:24:44.298Z,7.15
2023-05-21T08:26:09.783Z,6.22
2023-05-21T08:27:33.899Z,6.65
2023-05-21T08:28:55.178Z,6.35
2023-05-21T08:30:22.043Z,6.97
2023-05-21T08:31:55.659Z,6.32
2023-05-21T08:33:33.334Z,6.35
2023-05-21T08:35:05.551Z,6.28
2023-05-21T08:36:56.448Z,6.40
2023-05-21T08:38:47.095Z,5.35
2023-05-21T08:40:19.891Z,5.50
2023-05-21T08:41:50.012Z,5.95
2023-05-21T08:43:20.489Z,5.55
2023-05-21T08:45:15.748Z,5.28
2023-05-21T08:46:50.910Z,5.50
2023-05-21T08:48:13.339Z,5.45
2023-05-21T08:49:37.502Z,5.10
2023-05-21T08:51:04.066Z,5.35
2023-05-21T08:52:29.650Z,5.13
2023-05-21T08:53:52.748Z,5.18
2023-05-21T08:55:52.642Z,4.57
2023-05-21T08:57:20.383Z,4.53
2023-05-21T08:58:44.093Z,5.70
2023-05-21T09:00:11.516Z,4.80
2023-05-21T09:01:42.442Z,4.88
2023-05-21T09:03:17.287Z,5.22
2023-05-21T09:04:41.058Z,4.80
2023-05-21T09:06:03.769Z,4.15
2023-05-21T09:07:29.284Z,4.57
2023-05-21T09:10:42.980Z,4.65
2023-05-21T09:12:05.717Z,4.60
2023-05-21T09:13:37.524Z,4.80
2023-05-21T09:15:06.360Z,4.50
2023-05-21T09:16:34.475Z,4.47
2023-05-21T09:17:58.938Z,4.70
2023-05-21T09:19:33.448Z,4.50
2023-05-21T09:20:57.539Z,5.05
2023-05-21T09:22:27.245Z,4.70
2023-05-21T09:23:55.900Z,5.05
2023-05-21T09:25:24.984Z,5.05
2023-05-21T09:26:47.607Z,4.38
2023-05-21T09:28:15.979Z,4.80
2023-05-21T09:29:41.017Z,4.43
2023-05-21T09:31:05.299Z,5.10
2023-05-21T09:32:27.595Z,4.65
2023-05-21T09:33:51.763Z,4.65
2023-05-21T09:35:16.691Z,4.40
2023-05-21T09:36:39.807Z,4.43
2023-05-21T09:38:02.329Z,4.80
2023-05-21T09:39:31.152Z,4.60
2023-05-21T09:41:05.879Z,4.65
2023-05-21T09:42:31.794Z,4.32
2023-05-21T09:44:19.220Z,4.38
2023-05-21T09:45:53.712Z,4.28
2023-05-21T09:47:25.349Z,4.57
2023-05-21T09:48:52.706Z,4.10
2023-05-21T09:51:06.813Z,4.13
2023-05-21T09:53:05.275Z,4.43
2023-05-21T09:54:34.100Z,4.47
2023-05-21T09:55:59.765Z,4.22
2023-05-21T09:57:26.540Z,4.88
2023-05-21T09:58:55.039Z,4.20
2023-05-21T10:00:24.900Z,4.88
2023-05-21T10:01:57.420Z,3.95
2023-05-21T10:03:24.770Z,4.93
2023-05-21T10:04:54.446Z,3.70
2023-05-21T10:06:19.086Z,4.43
2023-05-21T10:07:44.190Z,4.43
2023-05-21T10:09:11.158Z,3.78
2023-05-21T10:10:36.668Z,4.00
2023-05-21T10:12:00.657Z,4.30
2023-05-21T10:13:23.900Z,3.58
2023-05-21T10:14:52.420Z,3.90
2023-05-21T10:16:15.893Z,4.38
2023-05-21T10:17:39.691Z,3.75
2023-05-21T10:19:01.320Z,3.92
2023-05-21T10:20:44.712Z,3.88
2023-05-21T10:22:08.290Z,3.80
2023-05-21T10:23:31.506Z,4.22
2023-05-21T10:25:00.962Z,4.15
2023-05-21T10:26:28.895Z,3.78
2023-05-21T10:27:50.230Z,3.58
2023-05-21T10:29:13.991Z,4.10
2023-05-21T10:30:38.860Z,3.75
2023-05-21T10:32:02.669Z,4.20
2023-05-21T10:33:27.636Z,3.78
2023-05-21T10:34:50.978Z,4.25
2023-05-21T10:36:18.029Z,4.25
2023-05-21T10:37:40.483Z,3.78
2023-05-21T10:39:11.615Z,4.00
2023-05-21T10:40:39.129Z,3.60
2023-05-21T10:42:14.089Z,3.40
2023-05-21T10:43:44.536Z,3.92
2023-05-21T10:45:17.447Z,3.95
2023-05-21T10:47:03.848Z,3.53
2023-05-21T10:48:44.239Z,3.28
2023-05-21T10:50:26.101Z,3.78
2023-05-21T10:52:03.167Z,3.42
2023-05-21T10:53:33.798Z,3.92
2023-05-21T10:55:12.936Z,3.42
2023-05-21T10:56:46.489Z,3.40
2023-05-21T10:58:32.679Z,3.00
2023-05-21T10:59:55.573Z,3.63
2023-05-21T11:01:19.520Z,3.72
2023-05-21T11:02:42.363Z,3.50
2023-05-21T11:04:06.076Z,3.58
2023-05-21T11:05:56.102Z,3.83
2023-05-21T11:07:25.594Z,3.80
2023-05-21T11:08:48.608Z,4.70
2023-05-21T11:10:33.429Z,3.92
2023-05-21T11:11:59.425Z,3.70
2023-05-21T11:13:22.010Z,4.30
2023-05-21T11:14:58.410Z,3.58
2023-05-21T11:16:22.293Z,3.58
2023-05-21T11:17:44.845Z,3.47
2023-05-21T11:19:07.014Z,3.25
2023-05-21T11:20:36.035Z,3.95
2023-05-21T11:21:57.382Z,3.67
2023-05-21T11:23:22.566Z,3.85
2023-05-21T11:24:44.688Z,3.38
2023-05-21T11:26:07.339Z,3.38
2023-05-21T11:27:34.920Z,3.90
2023-05-21T11:29:08.054Z,3.45
2023-05-21T11:30:30.533Z,3.28
2023-05-21T11:32:02.867Z,3.65
2023-05-21T11:33:25.113Z,3.78
2023-05-21T11:34:48.346Z,3.53
2023-05-21T11:36:13.072Z,3.78
2023-05-21T11:37:37.306Z,3.78
2023-05-21T11:39:11.943Z,3.30
2023-05-21T11:40:34.800Z,3.20
2023-05-21T11:41:59.815Z,3.67
2023-05-21T11:43:23.225Z,3.90
2023-05-21T11:44:46.072Z,4.10
2023-05-21T11:46:08.796Z,3.50
2023-05-21T11:47:30.414Z,3.58
2023-05-21T11:48:56.978Z,3.45
2023-05-21T11:50:19.861Z,3.67
2023-05-21T11:51:41.181Z,3.88
2023-05-21T11:53:03.989Z,3.33
2023-05-21T11:54:27.347Z,4.00
2023-05-21T11:55:50.817Z,3.97
2023-05-21T11:57:12.622Z,3.45
2023-05-21T11:58:34.641Z,3.75
2023-05-21T11:59:58.638Z,3.67
2023-05-21T12:01:24.182Z,4.15
2023-05-21T12:02:47.935Z,3.33
2023-05-21T12:04:11.144Z,3.38
2023-05-21T12:05:45.347Z,3.42
2023-05-21T12:07:22.706Z,3.58
2023-05-21T12:08:58.724Z,3.70
2023-05-21T12:10:26.231Z,3.63
2023-05-21T12:11:47.861Z,3.35
2023-05-21T12:13:10.129Z,3.28
2023-05-21T12:14:34.641Z,3.90
2023-05-21T12:15:57.150Z,3.80
2023-05-21T12:17:19.532Z,3.75
2023-05-21T12:18:43.450Z,3.47
2023-05-21T12:20:08.550Z,3.45
2023-05-21T12:21:30.057Z,3.70
2023-05-21T12:22:52.241Z,3.75
2023-05-21T12:24:13.636Z,3.67
2023-05-21T12:25:37.258Z,3.72
2023-05-21T12:26:59.742Z,3.67
2023-05-21T12:28:24.812Z,3.63
2023-05-21T12:29:51.779Z,3.95
2023-05-21T12:31:16.900Z,3.90
2023-05-21T12:32:44.390Z,4.10
2023-05-21T12:34:05.882Z,3.40
2023-05-21T12:35:28.050Z,4.20
2023-05-21T12:36:53.288Z,3.75
2023-05-21T12:38:18.001Z,3.85
2023-05-21T12:39:40.701Z,3.40
2023-05-21T12:41:07.929Z,3.55
2023-05-21T12:42:31.278Z,3.97
2023-05-21T12:43:53.502Z,4.10
2023-05-21T12:45:18.920Z,4.13
2023-05-21T12:46:42.219Z,3.78
2023-05-21T12:48:05.284Z,4.13
2023-05-21T12:49:38.536Z,4.07
2023-05-21T12:51:00.020Z,4.00
2023-05-21T12:52:22.096Z,5.00
2023-05-21T12:53:44.594Z,3.78
2023-05-21T12:55:10.618Z,4.07
2023-05-21T12:56:48.730Z,3.72
2023-05-21T12:58:15.521Z,3.45
2023-05-21T12:59:51.564Z,4.00
2023-05-21T13:01:14.094Z,3.53
2023-05-21T13:02:40.176Z,3.60
2023-05-21T13:04:02.423Z,3.85
2023-05-21T13:05:27.994Z,3.63
2023-05-21T13:06:49.258Z,4.22
2023-05-21T13:08:14.296Z,3.90
2023-05-21T13:09:35.418Z,3.47
2023-05-21T13:10:57.891Z,4.13
2023-05-21T13:12:22.166Z,3.83
2023-05-21T13:13:45.531Z,4.03
2023-05-21T13:15:10.319Z,3.35
2023-05-21T13:16:31.222Z,3.20
2023-05-21T13:17:55.243Z,4.20
2023-05-21T13:19:18.824Z,4.25
2023-05-21T13:20:40.876Z,5.03
2023-05-21T13:22:04.584Z,3.80
2023-05-21T13:23:26.594Z,3.40
2023-05-21T13:24:51.537Z,3.33
2023-05-21T13:26:19.930Z,3.33
2023-05-21T13:27:44.192Z,3.63
2023-05-21T13:29:05.349Z,3.40
2023-05-21T13:30:27.575Z,4.28
2023-05-21T13:31:49.772Z,3.70
2023-05-21T13:33:12.114Z,3.67
2023-05-21T13:34:33.524Z,3.80
2023-05-21T13:35:58.397Z,4.00
2023-05-21T13:37:22.676Z,3.95
2023-05-21T13:38:45.317Z,3.80
2023-05-21T13:40:11.171Z,3.65
2023-05-21T13:41:32.279Z,3.63
2023-05-21T13:42:56.105Z,3.88
2023-05-21T13:44:21.583Z,4.07
2023-05-21T13:45:44.587Z,3.38
2023-05-21T13:47:06.086Z,3.85
2023-05-21T13:48:30.822Z,3.35
2023-05-21T13:49:51.765Z,3.35
2023-05-21T13:51:19.887Z,3.58
2023-05-21T13:52:48.499Z,3.67
2023-05-21T13:54:14.284Z,3.90
2023-05-21T13:55:39.107Z,4.05
2023-05-21T13:57:01.302Z,4.05
2023-05-21T13:58:25.174Z,3.33
2023-05-21T13:59:47.531Z,3.58
2023-05-21T14:01:10.472Z,3.35
2023-05-21T14:02:32.724Z,3.63
2023-05-21T14:03:55.439Z,3.67
2023-05-21T14:05:17.936Z,3.50
2023-05-21T14:06:41.302Z,3.65
2023-05-21T14:08:03.867Z,4.00
2023-05-21T14:09:28.054Z,3.50
2023-05-21T14:10:52.549Z,3.40
2023-05-21T14:12:17.518Z,3.72
2023-05-21T14:13:41.481Z,3.30
2023-05-21T14:15:03.503Z,4.10
2023-05-21T14:16:27.838Z,3.60
2023-05-21T14:17:50.402Z,3.75
2023-05-21T14:19:12.329Z,3.50
2023-05-21T14:20:34.396Z,3.55
2023-05-21T14:21:56.739Z,4.00
2023-05-21T14:23:18.986Z,4.05
2023-05-21T14:24:40.975Z,3.22
2023-05-21T14:26:03.696Z,4.07
2023-05-21T14:27:25.771Z,3.55
2023-05-21T14:28:49.464Z,3.53
2023-05-21T14:30:12.699Z,3.95
2023-05-21T14:31:34.853Z,3.75
2023-05-21T14:32:58.055Z,3.67
2023-05-21T14:34:20.298Z,3.45
2023-05-21T14:35:44.310Z,3.70
2023-05-21T14:37:06.996Z,3.72
2023-05-21T14:38:29.342Z,4.05
2023-05-21T14:39:51.379Z,3.53
2023-05-21T14:41:13.556Z,3.72
2023-05-21T14:42:37.895Z,3.70
2023-05-21T14:44:01.849Z,3.53
2023-05-21T14:45:24.298Z,4.20
2023-05-21T14:46:46.208Z,3.70
2023-05-21T14:48:09.630Z,4.03
2023-05-21T14:49:32.180Z,3.92
2023-05-21T14:50:55.091Z,3.80
2023-05-21T14:52:17.086Z,3.25
2023-05-21T14:53:39.556Z,3.97
2023-05-21T14:55:01.565Z,3.95
2023-05-21T14:56:26.395Z,3.75
2023-05-21T14:57:48.640Z,3.72
2023-05-21T14:59:13.104Z,3.17
2023-05-21T15:00:36.302Z,3.50
2023-05-21T15:01:58.948Z,3.60
2023-05-21T15:03:21.049Z,3.80
2023-05-21T15:04:42.157Z,4.38
2023-05-21T15:06:06.868Z,3.45
2023-05-21T15:07:29.592Z,3.67
2023-05-21T15:08:51.817Z,4.18
2023-05-21T15:10:15.330Z,3.80
2023-05-21T15:11:44.025Z,3.60
2023-05-21T15:13:06.059Z,3.92
2023-05-21T15:14:28.537Z,3.33
2023-05-21T15:15:53.577Z,3.63
2023-05-21T15:17:15.849Z,3.50
2023-05-21T15:18:42.429Z,3.45
2023-05-21T15:20:07.438Z,3.65
2023-05-21T15:21:30.076Z,3.75
2023-05-21T15:24:27.609Z,3.65
2023-05-21T15:25:52.159Z,3.83
2023-05-21T15:27:14.282Z,3.80
2023-05-21T15:28:36.644Z,3.22
2023-05-21T15:30:05.965Z,3.63
2023-05-21T15:31:28.579Z,3.40
2023-05-21T15:32:52.807Z,4.03
2023-05-21T15:34:15.228Z,3.53
2023-05-21T15:35:40.328Z,3.78
2023-05-21T15:37:02.687Z,3.40
2023-05-21T15:38:23.889Z,3.65
2023-05-21T15:39:47.074Z,3.80
2023-05-21T15:41:11.450Z,3.88
2023-05-21T15:42:34.247Z,3.50
2023-05-21T15:43:56.577Z,3.40
2023-05-21T15:45:21.416Z,3.28
2023-05-21T15:46:46.006Z,3.22
2023-05-21T15:48:10.079Z,3.47
2023-05-21T15:49:32.289Z,3.42
2023-05-21T15:50:54.569Z,4.28
2023-05-21T15:52:17.257Z,3.67
2023-05-21T15:53:41.837Z,3.67
2023-05-21T15:55:04.184Z,3.35
2023-05-21T15:56:26.814Z,3.70
2023-05-21T15:57:49.212Z,3.28
2023-05-21T15:59:11.394Z,3.63
2023-05-21T16:00:35.501Z,3.17
2023-05-21T16:01:57.859Z,3.53
2023-05-21T16:03:20.259Z,3.83
2023-05-21T16:04:45.676Z,3.58
2023-05-21T16:06:08.261Z,3.20
2023-05-21T16:07:31.138Z,3.38
2023-05-21T16:08:54.151Z,3.08
2023-05-21T16:10:16.465Z,3.20
2023-05-21T16:11:57.224Z,3.50
2023-05-21T16:13:19.477Z,3.55
2023-05-21T16:14:42.083Z,3.75
2023-05-21T16:16:05.773Z,3.58
2023-05-21T16:17:30.742Z,3.38
2023-05-21T16:18:53.212Z,3.53
2023-05-21T16:20:14.641Z,3.55
2023-05-21T16:23:13.368Z,3.20
2023-05-21T16:24:36.031Z,3.42
2023-05-21T16:25:57.318Z,3.60
2023-05-21T16:27:19.657Z,3.30
2023-05-21T16:28:48.481Z,3.58
2023-05-21T16:30:14.243Z,3.63
2023-05-21T16:31:40.741Z,4.13
2023-05-21T16:33:03.099Z,3.40
2023-05-21T16:34:24.616Z,3.30
2023-05-21T16:35:47.116Z,2.80
2023-05-21T16:37:10.123Z,3.80
2023-05-21T16:38:32.958Z,3.70
2023-05-21T16:40:02.339Z,3.28
2023-05-21T16:41:26.492Z,3.50
2023-05-21T16:42:47.467Z,3.40
2023-05-21T16:44:09.832Z,8.30
2023-05-21T16:45:40.758Z,3.40
2023-05-21T16:47:05.200Z,3.17
2023-05-21T16:48:26.447Z,2.95
2023-05-21T16:49:48.754Z,3.45
2023-05-21T16:51:09.944Z,3.22
2023-05-21T16:52:31.909Z,3.20
2023-05-21T16:54:02.505Z,3.75
2023-05-21T16:55:25.186Z,3.55
2023-05-21T16:56:46.384Z,3.67
2023-05-21T16:58:10.858Z,3.38
2023-05-21T16:59:33.030Z,3.45
2023-05-21T17:00:55.463Z,3.05
2023-05-21T17:02:30.125Z,3.13
2023-05-21T17:03:57.967Z,3.15
2023-05-21T17:05:24.066Z,3.58
2023-05-21T17:06:49.374Z,3.70
2023-05-21T17:08:11.796Z,3.58
2023-05-21T17:09:39.723Z,3.40
2023-05-21T17:11:02.010Z,3.35
2023-05-21T17:12:24.724Z,3.30
2023-05-21T17:13:48.288Z,3.20
2023-05-21T17:15:10.792Z,3.10
2023-05-21T17:17:04.997Z,2.92
2023-05-21T17:18:56.192Z,3.20
2023-05-21T17:20:35.630Z,3.33
2023-05-21T17:22:00.917Z,2.80
2023-05-21T17:23:24.914Z,3.25
2023-05-21T17:24:51.775Z,3.10
2023-05-21T17:26:16.744Z,3.38
2023-05-21T17:28:00.054Z,3.25
2023-05-21T17:29:23.525Z,3.92
2023-05-21T17:30:48.743Z,3.20
2023-05-21T17:32:12.879Z,3.65
2023-05-21T17:33:37.878Z,3.67
2023-05-21T17:35:04.065Z,3.45
2023-05-21T17:36:26.478Z,3.20
2023-05-21T17:37:50.458Z,3.63
2023-05-21T17:39:13.147Z,3.03
2023-05-21T17:40:35.863Z,3.53
2023-05-21T17:41:59.174Z,3.67
2023-05-21T17:43:21.346Z,4.05
2023-05-21T17:44:43.493Z,3.50
2023-05-21T17:46:06.076Z,3.55
2023-05-21T17:47:28.557Z,3.55
2023-05-21T17:48:56.129Z,3.80
2023-05-21T17:50:20.132Z,3.33
2023-05-21T17:51:46.878Z,3.22
2023-05-21T17:53:09.453Z,3.47
2023-05-21T17:54:32.046Z,3.40
2023-05-21T17:55:57.576Z,2.97
2023-05-21T17:57:20.485Z,3.40
2023-05-21T17:58:43.873Z,4.63
2023-05-21T18:00:07.736Z,4.10
2023-05-21T18:01:52.104Z,3.83
2023-05-21T18:03:39.225Z,3.88
2023-05-21T18:05:06.211Z,4.00
2023-05-21T18:06:29.162Z,3.47
2023-05-21T18:07:52.216Z,3.53
2023-05-21T18:09:16.782Z,3.42
2023-05-21T18:11:08.546Z,3.65
2023-05-21T18:12:31.112Z,3.70
2023-05-21T18:13:55.294Z,3.65
2023-05-21T18:15:36.139Z,3.70
2023-05-21T18:16:58.516Z,3.60
2023-05-21T18:18:21.623Z,3.58
2023-05-21T18:19:44.152Z,3.47
2023-05-21T18:21:06.812Z,3.40
2023-05-21T18:22:32.118Z,3.72
2023-05-21T18:23:55.319Z,3.13
2023-05-21T18:25:20.066Z,3.67
2023-05-21T18:26:43.430Z,3.38
2023-05-21T18:28:34.846Z,3.80
2023-05-21T18:29:57.080Z,3.90
2023-05-21T18:31:19.237Z,3.80
2023-05-21T18:32:45.032Z,4.13
2023-05-21T18:34:07.481Z,4.40
2023-05-21T18:35:31.188Z,4.15
2023-05-21T18:36:54.684Z,3.55
2023-05-21T18:38:18.254Z,3.65
2023-05-21T18:39:43.033Z,3.65
2023-05-21T18:41:05.316Z,4.03
2023-05-21T18:42:29.477Z,3.80
2023-05-21T18:43:51.772Z,3.97
2023-05-21T18:45:15.123Z,3.95
2023-05-21T18:46:38.013Z,4.20
2023-05-21T18:48:01.519Z,4.00
2023-05-21T18:49:24.207Z,4.18
2023-05-21T18:50:46.434Z,4.20
2023-05-21T18:52:09.296Z,4.07
2023-05-21T18:53:33.264Z,3.97
2023-05-21T18:54:56.141Z,4.30
2023-05-21T18:56:20.289Z,3.67
2023-05-21T18:59:51.229Z,3.75
2023-05-21T19:01:14.248Z,4.00
2023-05-21T19:02:36.135Z,4.10
2023-05-21T19:04:03.626Z,4.20
2023-05-21T19:05:26.206Z,3.80
2023-05-21T19:06:50.507Z,4.20
2023-05-21T19:08:12.629Z,4.03
2023-05-21T19:09:36.938Z,3.47
2023-05-21T19:11:02.749Z,3.83
2023-05-21T19:12:29.481Z,4.07
2023-05-21T19:13:52.116Z,3.92
2023-05-21T19:15:14.038Z,4.30
2023-05-21T19:16:38.323Z,4.18
2023-05-21T19:18:03.857Z,4.20
2023-05-21T19:19:25.224Z,3.70
2023-05-21T19:20:48.047Z,3.80
2023-05-21T19:22:12.779Z,3.53
2023-05-21T19:23:48.477Z,3.75
2023-05-21T19:25:16.172Z,4.00
2023-05-21T19:26:38.816Z,4.18
2023-05-21T19:28:01.876Z,4.47
2023-05-21T19:29:32.768Z,3.92
2023-05-21T19:31:02.333Z,4.38
2023-05-21T19:32:25.219Z,4.05
2023-05-21T19:33:53.998Z,4.13
2023-05-21T19:35:17.098Z,3.92
2023-05-21T19:36:52.354Z,4.28
2023-05-21T19:38:19.839Z,4.30
2023-05-21T19:39:43.699Z,3.60
2023-05-21T19:41:10.677Z,4.03
2023-05-21T19:42:31.963Z,3.55
2023-05-21T19:43:54.488Z,4.28
2023-05-21T19:45:20.467Z,4.25
2023-05-21T19:47:41.360Z,4.85
2023-05-21T19:50:28.993Z,4.47